Time;durP1;ratioP1;P1;durP2;ratioP2;P2;SDS_P1;SDS_P2;PMS_P1;PMS_P2;Temp;Humidity;BMP_temperature;BMP_pressure;BME280_temperature;BME280_humidity;BME280_pressure;Samples;Min_cycle;Max_cycle;Signal;HPM_P1;HPM_P2
2023/03/24 00:00:04;;;;;;;8.88;3.08;;;;;;;;;;4987495;28;20593;-72
2023/03/24 00:02:29;;;;;;;6.00;2.78;;;;;;;;;;4983263;28;20172;-72
2023/03/24 00:04:57;;;;;;;6.13;2.72;;;;;;;;;;4984237;28;20196;-72
2023/03/24 00:07:23;;;;;;;6.32;3.08;;;;;;;;;;4985419;28;20274;-72
2023/03/24 00:09:48;;;;;;;4.97;2.80;;;;;;;;;;4986017;28;20211;-72
2023/03/24 00:12:17;;;;;;;3.35;2.55;;;;;;;;;;4986434;28;20646;-72
2023/03/24 00:14:42;;;;;;;4.22;2.30;;;;;;;;;;4992427;28;20211;-73
2023/03/24 00:17:16;;;;;;;8.70;3.38;;;;;;;;;;4988091;28;20311;-72
2023/03/24 00:19:43;;;;;;;8.77;3.15;;;;;;;;;;4985520;28;20205;-72
2023/03/24 00:22:13;;;;;;;3.90;2.58;;;;;;;;;;4985771;28;20179;-72
2023/03/24 00:24:39;;;;;;;7.18;2.80;;;;;;;;;;4988511;28;20226;-72
2023/03/24 00:27:04;;;;;;;9.30;3.13;;;;;;;;;;4986971;28;20183;-72
2023/03/24 00:29:30;;;;;;;5.15;2.85;;;;;;;;;;4987004;28;20619;-72
2023/03/24 00:31:55;;;;;;;6.72;3.03;;;;;;;;;;4988740;28;20625;-72
2023/03/24 00:34:21;;;;;;;5.43;3.25;;;;;;;;;;4984815;28;20203;-72
2023/03/24 00:36:47;;;;;;;4.05;2.67;;;;;;;;;;4989634;28;20230;-72
2023/03/24 00:39:13;;;;;;;5.60;3.10;;;;;;;;;;4987869;28;20168;-73
2023/03/24 00:41:38;;;;;;;6.35;3.38;;;;;;;;;;4991229;28;20184;-73
2023/03/24 00:44:04;;;;;;;6.22;3.08;;;;;;;;;;4996589;28;20234;-73
2023/03/24 00:46:31;;;;;;;4.15;3.08;;;;;;;;;;4994642;28;20179;-72
2023/03/24 00:49:04;;;;;;;5.65;2.58;;;;;;;;;;4993393;28;20182;-73
2023/03/24 00:51:36;;;;;;;6.97;3.60;;;;;;;;;;4991649;28;20538;-73
2023/03/24 00:54:02;;;;;;;3.60;2.90;;;;;;;;;;4993254;28;20188;-74
2023/03/24 00:56:30;;;;;;;5.38;2.72;;;;;;;;;;4991177;28;20541;-72
2023/03/24 00:58:56;;;;;;;4.97;3.33;;;;;;;;;;4994638;28;20163;-73
2023/03/24 01:01:22;;;;;;;4.30;3.55;;;;;;;;;;4990562;28;20263;-73
2023/03/24 01:03:49;;;;;;;5.57;2.70;;;;;;;;;;4986919;28;20282;-72
2023/03/24 01:06:15;;;;;;;4.13;2.95;;;;;;;;;;4994237;28;20186;-72
2023/03/24 01:08:40;;;;;;;6.68;3.47;;;;;;;;;;4988565;28;20175;-72
2023/03/24 01:11:05;;;;;;;5.07;3.58;;;;;;;;;;4989958;28;20565;-73
2023/03/24 01:13:30;;;;;;;7.22;3.88;;;;;;;;;;4988363;28;20192;-72
2023/03/24 01:15:57;;;;;;;6.38;2.88;;;;;;;;;;4992416;28;20203;-72
2023/03/24 01:18:26;;;;;;;3.45;2.67;;;;;;;;;;4991426;28;20238;-72
2023/03/24 01:20:52;;;;;;;4.43;3.13;;;;;;;;;;4989159;28;20233;-72
2023/03/24 01:23:22;;;;;;;5.30;3.00;;;;;;;;;;4992438;28;20171;-72
2023/03/24 01:25:48;;;;;;;5.80;2.80;;;;;;;;;;4995915;28;20202;-72
2023/03/24 01:28:15;;;;;;;3.58;2.90;;;;;;;;;;4987321;28;20670;-72
2023/03/24 01:30:41;;;;;;;3.47;2.92;;;;;;;;;;4988712;28;20172;-72
2023/03/24 01:33:06;;;;;;;3.55;2.90;;;;;;;;;;4987802;28;20172;-72
2023/03/24 01:35:32;;;;;;;4.03;3.25;;;;;;;;;;4989784;28;20678;-72
2023/03/24 01:37:57;;;;;;;5.60;3.88;;;;;;;;;;4991354;28;20180;-72
2023/03/24 01:40:30;;;;;;;6.78;3.28;;;;;;;;;;4990876;28;20182;-72
2023/03/24 01:42:56;;;;;;;5.60;3.30;;;;;;;;;;4985496;28;20160;-72
2023/03/24 01:45:40;;;;;;;5.10;2.70;;;;;;;;;;4992357;28;20290;-72
2023/03/24 01:48:07;;;;;;;3.15;2.25;;;;;;;;;;4991118;28;20179;-72
2023/03/24 01:50:33;;;;;;;5.05;3.17;;;;;;;;;;4986543;28;20208;-72
2023/03/24 01:52:58;;;;;;;4.68;2.90;;;;;;;;;;4985707;28;20172;-72
2023/03/24 01:55:24;;;;;;;4.13;3.40;;;;;;;;;;4989737;28;20211;-72
2023/03/24 01:57:55;;;;;;;3.63;3.08;;;;;;;;;;4987853;28;20235;-72
2023/03/24 02:00:20;;;;;;;4.82;3.75;;;;;;;;;;4993225;28;20753;-72
2023/03/24 02:02:53;;;;;;;4.43;3.40;;;;;;;;;;4985451;28;20251;-73
2023/03/24 02:05:20;;;;;;;5.07;4.03;;;;;;;;;;4983879;28;20196;-72
2023/03/24 02:08:06;;;;;;;4.28;3.33;;;;;;;;;;4987379;28;20206;-74
2023/03/24 02:10:32;;;;;;;5.32;4.03;;;;;;;;;;4980745;28;20250;-75
2023/03/24 02:12:58;;;;;;;4.45;3.22;;;;;;;;;;4989928;28;20176;-75
2023/03/24 02:15:24;;;;;;;3.83;3.03;;;;;;;;;;4990197;28;20608;-74
2023/03/24 02:17:53;;;;;;;5.53;3.00;;;;;;;;;;4990952;28;20176;-75
2023/03/24 02:20:18;;;;;;;5.18;3.00;;;;;;;;;;4985103;28;20677;-74
2023/03/24 02:23:03;;;;;;;3.67;2.60;;;;;;;;;;5006698;28;20254;-74
2023/03/24 02:25:34;;;;;;;2.90;2.35;;;;;;;;;;4988882;28;20215;-75
2023/03/24 02:28:08;;;;;;;4.82;2.17;;;;;;;;;;4992355;28;20259;-74
2023/03/24 02:30:52;;;;;;;6.45;2.00;;;;;;;;;;4991619;28;20183;-74
2023/03/24 02:33:36;;;;;;;2.57;1.60;;;;;;;;;;4983300;28;20531;-74
2023/03/24 02:36:04;;;;;;;2.78;1.58;;;;;;;;;;4988814;28;20219;-74
2023/03/24 02:38:42;;;;;;;2.67;1.20;;;;;;;;;;4987348;28;20246;-74
2023/03/24 02:41:16;;;;;;;4.90;1.20;;;;;;;;;;4986029;28;20176;-74
2023/03/24 02:43:44;;;;;;;6.00;1.30;;;;;;;;;;4988716;28;20204;-74
2023/03/24 02:46:12;;;;;;;4.43;1.13;;;;;;;;;;4987661;28;20176;-74
2023/03/24 02:48:56;;;;;;;3.73;1.50;;;;;;;;;;4993645;28;20183;-73
2023/03/24 02:51:24;;;;;;;4.77;1.23;;;;;;;;;;4988692;28;20180;-74
2023/03/24 02:53:57;;;;;;;2.07;1.53;;;;;;;;;;4995080;28;20203;-73
2023/03/24 02:56:28;;;;;;;3.33;1.10;;;;;;;;;;4986201;28;20299;-73
2023/03/24 02:59:00;;;;;;;1.83;0.77;;;;;;;;;;4985257;28;20186;-73
2023/03/24 03:01:31;;;;;;;2.77;0.93;;;;;;;;;;4979477;28;21618;-73
2023/03/24 03:03:59;;;;;;;3.40;1.40;;;;;;;;;;4989669;28;20579;-72
2023/03/24 03:06:27;;;;;;;5.83;1.40;;;;;;;;;;4987351;28;20187;-73
2023/03/24 03:08:54;;;;;;;5.73;1.00;;;;;;;;;;4982238;28;20634;-73
2023/03/24 03:11:19;;;;;;;2.83;1.30;;;;;;;;;;4993409;28;20184;-73
2023/03/24 03:13:53;;;;;;;2.73;1.00;;;;;;;;;;4984417;28;20582;-73
2023/03/24 03:16:21;;;;;;;3.13;1.40;;;;;;;;;;4989319;28;20207;-73
2023/03/24 03:18:58;;;;;;;5.50;1.20;;;;;;;;;;4986966;28;20207;-72
2023/03/24 03:21:25;;;;;;;6.13;1.40;;;;;;;;;;4984778;28;20329;-72
2023/03/24 03:23:53;;;;;;;5.73;2.23;;;;;;;;;;4987447;28;20239;-72
2023/03/24 03:26:23;;;;;;;9.20;1.77;;;;;;;;;;4981083;28;20271;-73
2023/03/24 03:28:56;;;;;;;5.23;2.27;;;;;;;;;;4986045;28;20186;-73
2023/03/24 03:31:28;;;;;;;5.97;1.50;;;;;;;;;;4982452;28;20553;-73
2023/03/24 03:34:12;;;;;;;7.60;1.47;;;;;;;;;;4986218;28;20207;-72
2023/03/24 03:36:44;;;;;;;4.70;1.80;;;;;;;;;;4986555;28;20303;-73
2023/03/24 03:39:12;;;;;;;8.00;1.40;;;;;;;;;;4994088;28;20180;-73
2023/03/24 03:41:38;;;;;;;11.17;2.93;;;;;;;;;;4989822;28;20608;-73
2023/03/24 03:44:03;;;;;;;7.07;1.77;;;;;;;;;;4992561;28;20254;-73
2023/03/24 03:46:28;;;;;;;4.60;1.50;;;;;;;;;;4992612;28;20206;-73
2023/03/24 03:48:54;;;;;;;5.97;1.90;;;;;;;;;;4989692;28;20190;-73
2023/03/24 03:51:19;;;;;;;6.90;2.10;;;;;;;;;;4985114;28;20275;-73
2023/03/24 03:53:51;;;;;;;9.53;2.13;;;;;;;;;;4987108;28;20250;-72
2023/03/24 03:56:17;;;;;;;8.97;2.20;;;;;;;;;;4990855;28;20699;-73
2023/03/24 03:58:45;;;;;;;4.37;2.00;;;;;;;;;;4986770;28;20198;-72
2023/03/24 04:01:12;;;;;;;12.80;2.10;;;;;;;;;;4982421;28;20176;-73
2023/03/24 04:03:56;;;;;;;8.90;2.87;;;;;;;;;;4981381;28;20238;-72
2023/03/24 04:06:49;;;;;;;13.43;3.30;;;;;;;;;;4986325;28;20319;-73
2023/03/24 04:09:17;;;;;;;9.83;2.70;;;;;;;;;;4980205;28;20468;-73
2023/03/24 04:11:53;;;;;;;7.60;2.37;;;;;;;;;;4988062;28;20269;-72
2023/03/24 04:14:40;;;;;;;6.47;2.40;;;;;;;;;;4992735;28;20203;-73
2023/03/24 04:17:34;;;;;;;13.37;3.10;;;;;;;;;;4980547;28;20937;-72
2023/03/24 04:20:04;;;;;;;13.97;3.67;;;;;;;;;;4931715;28;20190;-72
2023/03/24 04:22:42;;;;;;;9.13;2.77;;;;;;;;;;4981811;28;20251;-73
2023/03/24 04:25:26;;;;;;;15.20;3.47;;;;;;;;;;4980344;28;20282;-72
2023/03/24 04:27:59;;;;;;;14.00;3.73;;;;;;;;;;4984350;28;20562;-72
2023/03/24 04:30:37;;;;;;;13.83;3.13;;;;;;;;;;4981596;28;20250;-72
2023/03/24 04:33:16;;;;;;;16.23;3.40;;;;;;;;;;4982359;28;20188;-72
2023/03/24 04:35:45;;;;;;;11.63;2.37;;;;;;;;;;4985837;28;20203;-72
2023/03/24 04:38:21;;;;;;;16.07;3.23;;;;;;;;;;4983527;28;20665;-72
2023/03/24 04:40:49;;;;;;;9.70;2.27;;;;;;;;;;4987853;28;20237;-72
2023/03/24 04:43:16;;;;;;;12.57;2.50;;;;;;;;;;4983577;28;20242;-72
2023/03/24 04:45:42;;;;;;;14.43;3.10;;;;;;;;;;4981145;28;20172;-72
2023/03/24 04:48:08;;;;;;;13.63;2.50;;;;;;;;;;4983298;28;20559;-72
2023/03/24 04:50:37;;;;;;;7.87;2.00;;;;;;;;;;4983369;28;20199;-72
2023/03/24 04:53:04;;;;;;;9.77;2.27;;;;;;;;;;4985791;28;20193;-72
2023/03/24 04:55:31;;;;;;;15.33;4.67;;;;;;;;;;4986482;28;20681;-72
2023/03/24 04:57:56;;;;;;;12.10;2.70;;;;;;;;;;4987244;28;20683;-72
2023/03/24 05:00:21;;;;;;;13.07;3.00;;;;;;;;;;4986706;28;20251;-72
2023/03/24 05:02:46;;;;;;;10.40;2.90;;;;;;;;;;4985495;28;20262;-71
2023/03/24 05:05:11;;;;;;;16.23;2.90;;;;;;;;;;4979688;28;20296;-71
2023/03/24 05:07:37;;;;;;;12.50;3.43;;;;;;;;;;4986569;28;20172;-72
2023/03/24 05:10:02;;;;;;;21.23;5.50;;;;;;;;;;4981046;28;20234;-72
2023/03/24 05:12:27;;;;;;;13.33;3.20;;;;;;;;;;4990064;28;20725;-72
2023/03/24 05:14:52;;;;;;;14.70;3.93;;;;;;;;;;4981223;28;20208;-71
2023/03/24 05:17:18;;;;;;;17.83;3.43;;;;;;;;;;4989024;28;20638;-71
2023/03/24 05:19:43;;;;;;;13.90;3.27;;;;;;;;;;4984641;28;20217;-73
2023/03/24 05:22:08;;;;;;;11.50;3.50;;;;;;;;;;4982978;28;20572;-71
2023/03/24 05:24:33;;;;;;;16.23;3.60;;;;;;;;;;4984134;28;20298;-71
2023/03/24 05:26:59;;;;;;;16.17;4.03;;;;;;;;;;4989764;28;20193;-71
2023/03/24 05:29:24;;;;;;;16.37;3.27;;;;;;;;;;4990803;28;20175;-71
2023/03/24 05:31:49;;;;;;;13.73;3.13;;;;;;;;;;4991075;28;20186;-71
2023/03/24 05:34:15;;;;;;;16.47;4.00;;;;;;;;;;4991605;28;20238;-71
2023/03/24 05:36:40;;;;;;;17.57;4.40;;;;;;;;;;4987198;28;20546;-71
2023/03/24 05:39:05;;;;;;;23.77;3.43;;;;;;;;;;4991816;28;20683;-71
2023/03/24 05:41:30;;;;;;;18.13;2.87;;;;;;;;;;4986707;28;20537;-71
2023/03/24 05:43:55;;;;;;;9.87;2.77;;;;;;;;;;4994021;28;20249;-71
2023/03/24 05:46:21;;;;;;;12.87;2.77;;;;;;;;;;4990522;28;20176;-72
2023/03/24 05:48:46;;;;;;;11.80;3.03;;;;;;;;;;4990614;28;20552;-71
2023/03/24 05:51:11;;;;;;;18.97;2.83;;;;;;;;;;4992083;28;20161;-71
2023/03/24 05:53:37;;;;;;;14.57;3.43;;;;;;;;;;4988749;28;20202;-71
2023/03/24 05:56:02;;;;;;;14.00;3.30;;;;;;;;;;4983041;28;20233;-71
2023/03/24 05:58:27;;;;;;;9.50;2.57;;;;;;;;;;4990137;28;20172;-71
2023/03/24 06:00:53;;;;;;;17.57;3.23;;;;;;;;;;4990367;28;20191;-71
2023/03/24 06:03:18;;;;;;;14.50;3.27;;;;;;;;;;4987856;28;20244;-71
2023/03/24 06:05:44;;;;;;;17.17;3.47;;;;;;;;;;4984280;28;20215;-71
2023/03/24 06:08:10;;;;;;;18.10;3.87;;;;;;;;;;4994213;28;20202;-71
2023/03/24 06:10:35;;;;;;;14.90;2.90;;;;;;;;;;4989938;28;20180;-71
2023/03/24 06:13:00;;;;;;;12.07;2.90;;;;;;;;;;4990239;28;20183;-71
2023/03/24 06:15:26;;;;;;;9.67;2.87;;;;;;;;;;4987354;28;20204;-72
2023/03/24 06:17:53;;;;;;;12.10;2.77;;;;;;;;;;4987826;28;20172;-73
2023/03/24 06:20:18;;;;;;;20.07;3.97;;;;;;;;;;4990268;28;20856;-72
2023/03/24 06:22:44;;;;;;;12.23;2.37;;;;;;;;;;4986053;28;20327;-72
2023/03/24 06:25:10;;;;;;;13.43;3.70;;;;;;;;;;4992824;28;20215;-72
2023/03/24 06:27:35;;;;;;;12.97;3.07;;;;;;;;;;4989691;28;20191;-72
2023/03/24 06:30:01;;;;;;;14.57;3.13;;;;;;;;;;4986904;28;20192;-72
2023/03/24 06:32:27;;;;;;;9.20;3.20;;;;;;;;;;4984669;28;20619;-71
2023/03/24 06:34:52;;;;;;;11.27;2.30;;;;;;;;;;4984463;28;20207;-72
2023/03/24 06:37:19;;;;;;;8.20;3.07;;;;;;;;;;4990371;28;20176;-72
2023/03/24 06:39:45;;;;;;;11.43;2.60;;;;;;;;;;4984335;28;20184;-72
2023/03/24 06:42:10;;;;;;;10.77;2.87;;;;;;;;;;4990614;28;20238;-72
2023/03/24 06:44:35;;;;;;;15.20;2.63;;;;;;;;;;4984359;28;20266;-72
2023/03/24 06:47:00;;;;;;;10.43;2.83;;;;;;;;;;4983594;28;20191;-72
2023/03/24 06:49:26;;;;;;;9.63;2.83;;;;;;;;;;4986875;28;20259;-72
2023/03/24 06:51:51;;;;;;;12.50;4.37;;;;;;;;;;4986301;28;20271;-72
2023/03/24 06:54:16;;;;;;;9.40;2.50;;;;;;;;;;4987341;28;20191;-72
2023/03/24 06:56:42;;;;;;;9.93;2.73;;;;;;;;;;4985692;28;20199;-73
2023/03/24 06:59:07;;;;;;;8.80;2.63;;;;;;;;;;4981656;28;20183;-73
2023/03/24 07:01:34;;;;;;;11.97;4.07;;;;;;;;;;4986801;28;20187;-72
2023/03/24 07:03:59;;;;;;;15.67;2.77;;;;;;;;;;4983049;28;20202;-72
2023/03/24 07:06:24;;;;;;;10.27;3.03;;;;;;;;;;4985960;28;20183;-73
2023/03/24 07:08:50;;;;;;;15.43;3.77;;;;;;;;;;4984440;28;20203;-72
2023/03/24 07:11:16;;;;;;;11.67;2.50;;;;;;;;;;4984958;28;20267;-72
2023/03/24 07:13:41;;;;;;;10.53;2.50;;;;;;;;;;4987790;28;20574;-72
2023/03/24 07:16:06;;;;;;;7.87;2.47;;;;;;;;;;4988328;28;20213;-72
2023/03/24 07:18:31;;;;;;;8.40;2.10;;;;;;;;;;4986080;28;20173;-72
2023/03/24 07:20:57;;;;;;;7.83;2.53;;;;;;;;;;4981775;28;20748;-72
2023/03/24 07:23:23;;;;;;;10.00;3.83;;;;;;;;;;4982972;28;20184;-72
2023/03/24 07:25:49;;;;;;;9.40;2.50;;;;;;;;;;4984445;28;20203;-72
2023/03/24 07:28:14;;;;;;;8.43;2.20;;;;;;;;;;4987871;28;20175;-73
2023/03/24 07:30:40;;;;;;;13.47;2.97;;;;;;;;;;4985636;28;20180;-72
2023/03/24 07:33:05;;;;;;;11.07;2.70;;;;;;;;;;4982005;28;20203;-72
2023/03/24 07:35:31;;;;;;;12.57;3.97;;;;;;;;;;4985522;28;20215;-70
2023/03/24 07:38:00;;;;;;;9.53;2.20;;;;;;;;;;4979676;28;20181;-73
2023/03/24 07:40:25;;;;;;;8.20;2.75;;;;;;;;;;4982781;28;20172;-73
2023/03/24 07:42:50;;;;;;;9.93;2.77;;;;;;;;;;4979388;28;20558;-71
2023/03/24 07:45:15;;;;;;;10.77;2.33;;;;;;;;;;4983036;28;20266;-71
2023/03/24 07:47:42;;;;;;;12.15;3.50;;;;;;;;;;4980977;28;20263;-71
2023/03/24 07:50:10;;;;;;;11.05;3.00;;;;;;;;;;4978492;28;20183;-71
2023/03/24 07:52:37;;;;;;;15.48;2.72;;;;;;;;;;4982108;28;20172;-71
2023/03/24 07:55:02;;;;;;;9.70;2.78;;;;;;;;;;4990230;28;20230;-71
2023/03/24 07:57:27;;;;;;;8.98;3.05;;;;;;;;;;4979141;28;20255;-71
2023/03/24 07:59:53;;;;;;;7.95;2.17;;;;;;;;;;4983823;28;20195;-70
2023/03/24 08:02:18;;;;;;;9.48;3.65;;;;;;;;;;4982380;28;20176;-71
2023/03/24 08:04:43;;;;;;;12.85;2.97;;;;;;;;;;4982537;28;20286;-71
2023/03/24 08:07:11;;;;;;;11.70;2.80;;;;;;;;;;4977860;28;20583;-71
2023/03/24 08:09:36;;;;;;;7.55;2.53;;;;;;;;;;4983687;28;20259;-71
2023/03/24 08:12:01;;;;;;;10.43;3.45;;;;;;;;;;4986545;28;20255;-71
2023/03/24 08:14:26;;;;;;;9.23;3.22;;;;;;;;;;4986809;28;20226;-71
2023/03/24 08:16:52;;;;;;;10.77;2.55;;;;;;;;;;4983894;28;20264;-73
2023/03/24 08:19:17;;;;;;;10.48;2.47;;;;;;;;;;4983772;28;20164;-71
2023/03/24 08:21:42;;;;;;;10.05;2.80;;;;;;;;;;4979041;28;20192;-71
2023/03/24 08:24:07;;;;;;;9.80;3.22;;;;;;;;;;4987597;28;20219;-71
2023/03/24 08:26:34;;;;;;;12.88;3.22;;;;;;;;;;4979210;28;20223;-72
2023/03/24 08:28:59;;;;;;;7.20;2.75;;;;;;;;;;4982440;28;20184;-72
2023/03/24 08:31:30;;;;;;;8.23;2.08;;;;;;;;;;4985697;28;20194;-72
2023/03/24 08:33:56;;;;;;;10.85;2.70;;;;;;;;;;4984219;28;20291;-72
2023/03/24 08:36:25;;;;;;;10.05;3.17;;;;;;;;;;4978078;28;20240;-72
2023/03/24 08:38:50;;;;;;;10.40;2.75;;;;;;;;;;4985311;28;20183;-72
2023/03/24 08:41:15;;;;;;;10.88;2.58;;;;;;;;;;4983197;28;20175;-72
2023/03/24 08:43:41;;;;;;;9.95;2.78;;;;;;;;;;4985626;28;20192;-72
2023/03/24 08:46:07;;;;;;;9.65;2.70;;;;;;;;;;4981577;28;20550;-73
2023/03/24 08:48:33;;;;;;;10.38;3.78;;;;;;;;;;4983548;28;20669;-73
2023/03/24 08:50:59;;;;;;;10.88;3.47;;;;;;;;;;4979738;28;20184;-72
2023/03/24 08:53:24;;;;;;;9.73;3.40;;;;;;;;;;4986264;28;20194;-72
2023/03/24 08:55:50;;;;;;;6.88;2.30;;;;;;;;;;4985861;28;20203;-72
2023/03/24 08:58:16;;;;;;;6.05;1.95;;;;;;;;;;4986366;28;20210;-72
2023/03/24 09:00:43;;;;;;;8.57;2.88;;;;;;;;;;4982947;28;20231;-72
2023/03/24 09:03:08;;;;;;;7.97;2.35;;;;;;;;;;4990483;28;20645;-72
2023/03/24 09:05:34;;;;;;;11.18;3.28;;;;;;;;;;4983726;28;20211;-72
2023/03/24 09:08:00;;;;;;;8.45;2.50;;;;;;;;;;4988450;28;20187;-72
2023/03/24 09:10:25;;;;;;;10.55;3.03;;;;;;;;;;4991534;28;20621;-72
2023/03/24 09:12:50;;;;;;;11.68;2.83;;;;;;;;;;4991515;28;20211;-72
2023/03/24 09:15:16;;;;;;;6.05;2.35;;;;;;;;;;4991028;28;20705;-72
2023/03/24 09:17:41;;;;;;;6.13;2.05;;;;;;;;;;4987573;28;20692;-72
2023/03/24 09:20:10;;;;;;;10.35;3.00;;;;;;;;;;4985204;28;20168;-72
2023/03/24 09:22:36;;;;;;;9.25;3.17;;;;;;;;;;4986777;28;20668;-72
2023/03/24 09:25:01;;;;;;;4.95;2.20;;;;;;;;;;4987133;28;20227;-72
2023/03/24 09:27:26;;;;;;;12.77;3.03;;;;;;;;;;4988816;28;20179;-72
2023/03/24 09:29:52;;;;;;;7.50;2.60;;;;;;;;;;4989322;28;20188;-72
2023/03/24 09:32:18;;;;;;;7.47;2.30;;;;;;;;;;4988138;28;20214;-72
2023/03/24 09:34:43;;;;;;;10.85;2.72;;;;;;;;;;4985228;28;20784;-72
2023/03/24 09:37:08;;;;;;;7.28;2.50;;;;;;;;;;4993409;28;20198;-72
2023/03/24 09:39:36;;;;;;;9.55;3.05;;;;;;;;;;4990111;28;20204;-72
2023/03/24 09:42:05;;;;;;;6.50;2.42;;;;;;;;;;4986005;28;20176;-72
2023/03/24 09:44:32;;;;;;;10.02;1.77;;;;;;;;;;4987575;28;20193;-72
2023/03/24 09:47:04;;;;;;;9.52;3.53;;;;;;;;;;4985684;28;20215;-72
2023/03/24 09:49:32;;;;;;;7.78;1.75;;;;;;;;;;4984643;28;20180;-72
2023/03/24 09:52:05;;;;;;;9.45;2.47;;;;;;;;;;4987436;28;20176;-73
2023/03/24 09:54:39;;;;;;;9.23;2.20;;;;;;;;;;4991580;28;20287;-73
2023/03/24 09:57:10;;;;;;;10.05;2.80;;;;;;;;;;4987609;28;20179;-72
2023/03/24 09:59:37;;;;;;;7.47;2.25;;;;;;;;;;4982270;28;20176;-73
2023/03/24 10:02:09;;;;;;;9.32;2.20;;;;;;;;;;4991545;28;20282;-72
2023/03/24 10:04:34;;;;;;;9.10;2.95;;;;;;;;;;4985774;28;20567;-72
2023/03/24 10:07:05;;;;;;;8.27;3.63;;;;;;;;;;4983527;28;20184;-72
2023/03/24 10:09:32;;;;;;;13.70;2.92;;;;;;;;;;4988319;28;20172;-72
2023/03/24 10:12:16;;;;;;;7.88;1.98;;;;;;;;;;4990307;28;20548;-73
2023/03/24 10:14:56;;;;;;;11.45;3.47;;;;;;;;;;4983984;28;20681;-73
2023/03/24 10:17:24;;;;;;;4.40;1.55;;;;;;;;;;4983919;28;20175;-73
2023/03/24 10:19:52;;;;;;;8.40;2.35;;;;;;;;;;4985269;28;20173;-72
2023/03/24 10:22:21;;;;;;;11.43;3.15;;;;;;;;;;4985182;28;20186;-72
2023/03/24 10:24:52;;;;;;;3.65;1.90;;;;;;;;;;4987185;28;20306;-72
2023/03/24 10:27:36;;;;;;;9.20;2.30;;;;;;;;;;4985059;28;20183;-73
2023/03/24 10:30:13;;;;;;;8.20;2.33;;;;;;;;;;4984958;28;20176;-73
2023/03/24 10:32:40;;;;;;;8.13;3.45;;;;;;;;;;4987471;28;20177;-72
2023/03/24 10:35:08;;;;;;;5.22;1.95;;;;;;;;;;4984668;28;20203;-72
2023/03/24 10:37:34;;;;;;;6.20;2.20;;;;;;;;;;4981759;28;20228;-72
2023/03/24 10:40:00;;;;;;;9.23;2.47;;;;;;;;;;4986844;28;20184;-72
2023/03/24 10:42:29;;;;;;;6.25;2.40;;;;;;;;;;4981597;28;20177;-72
2023/03/24 10:44:54;;;;;;;7.55;2.08;;;;;;;;;;4989226;28;20258;-73
2023/03/24 10:47:29;;;;;;;6.75;2.08;;;;;;;;;;4984286;28;20180;-72
2023/03/24 10:49:59;;;;;;;4.97;1.90;;;;;;;;;;4982783;28;20202;-72
2023/03/24 10:52:25;;;;;;;10.55;2.90;;;;;;;;;;4983548;28;20195;-72
2023/03/24 10:54:57;;;;;;;7.50;2.53;;;;;;;;;;4991108;28;20581;-71
2023/03/24 10:57:23;;;;;;;10.40;2.60;;;;;;;;;;4984499;28;20723;-71
2023/03/24 10:59:49;;;;;;;5.93;2.08;;;;;;;;;;4985694;28;20179;-71
2023/03/24 11:02:16;;;;;;;7.20;2.55;;;;;;;;;;4979808;28;20662;-72
2023/03/24 11:04:56;;;;;;;6.10;2.25;;;;;;;;;;4985279;28;20211;-71
2023/03/24 11:07:27;;;;;;;9.43;2.13;;;;;;;;;;4981381;28;20191;-71
2023/03/24 11:10:14;;;;;;;11.32;2.53;;;;;;;;;;4986607;28;20666;-71
2023/03/24 11:12:40;;;;;;;5.13;1.70;;;;;;;;;;4988421;28;20607;-71
2023/03/24 11:15:16;;;;;;;6.13;1.85;;;;;;;;;;4981751;28;20227;-71
2023/03/24 11:17:41;;;;;;;5.35;2.00;;;;;;;;;;4984630;28;20174;-71
2023/03/24 11:20:23;;;;;;;6.95;1.77;;;;;;;;;;4983388;28;20171;-71
2023/03/24 11:22:56;;;;;;;5.35;1.75;;;;;;;;;;4983049;28;20179;-72
2023/03/24 11:25:24;;;;;;;6.80;1.95;;;;;;;;;;4982528;28;20298;-71
2023/03/24 11:27:50;;;;;;;5.88;1.48;;;;;;;;;;4983606;28;20180;-71
2023/03/24 11:30:16;;;;;;;5.72;1.63;;;;;;;;;;4984434;28;20664;-71
2023/03/24 11:32:44;;;;;;;7.70;1.92;;;;;;;;;;4989074;28;20553;-71
2023/03/24 11:35:16;;;;;;;12.05;2.50;;;;;;;;;;4985362;28;20213;-71
2023/03/24 11:37:42;;;;;;;4.05;1.55;;;;;;;;;;4981791;28;20176;-71
2023/03/24 11:40:16;;;;;;;4.97;2.08;;;;;;;;;;4988956;28;20266;-71
2023/03/24 11:42:56;;;;;;;6.82;1.80;;;;;;;;;;4989064;28;20184;-71
2023/03/24 11:45:27;;;;;;;9.57;2.08;;;;;;;;;;4980400;28;20246;-71
2023/03/24 11:47:56;;;;;;;5.30;1.73;;;;;;;;;;4983140;28;20184;-71
2023/03/24 11:50:36;;;;;;;6.40;2.17;;;;;;;;;;4981944;28;20184;-70
2023/03/24 11:53:06;;;;;;;5.65;1.50;;;;;;;;;;4977042;28;20183;-71
2023/03/24 11:55:31;;;;;;;13.88;2.45;;;;;;;;;;4988398;28;20210;-71
2023/03/24 11:58:09;;;;;;;4.90;1.70;;;;;;;;;;4986440;28;20250;-71
2023/03/24 12:00:39;;;;;;;6.93;1.80;;;;;;;;;;4986730;28;20263;-71
2023/03/24 12:03:08;;;;;;;7.07;1.60;;;;;;;;;;4980198;28;20207;-71
2023/03/24 12:05:39;;;;;;;6.15;2.08;;;;;;;;;;4981996;28;20191;-71
2023/03/24 12:08:10;;;;;;;5.10;1.80;;;;;;;;;;4981965;28;20183;-71
2023/03/24 12:10:41;;;;;;;7.10;1.33;;;;;;;;;;4992369;28;20183;-71
2023/03/24 12:13:11;;;;;;;7.30;1.70;;;;;;;;;;4989520;28;20180;-71
2023/03/24 12:15:56;;;;;;;3.97;1.27;;;;;;;;;;4992764;28;20195;-71
2023/03/24 12:18:21;;;;;;;8.27;1.58;;;;;;;;;;4984078;28;20191;-71
2023/03/24 12:20:55;;;;;;;5.15;1.23;;;;;;;;;;4982774;28;20177;-71
2023/03/24 12:23:39;;;;;;;7.78;1.30;;;;;;;;;;4979633;28;20195;-70
2023/03/24 12:26:05;;;;;;;9.50;1.92;;;;;;;;;;4985733;28;20278;-71
2023/03/24 12:28:33;;;;;;;3.53;1.30;;;;;;;;;;4982093;28;20199;-71
2023/03/24 12:31:04;;;;;;;5.80;1.45;;;;;;;;;;4988904;28;20176;-71
2023/03/24 12:33:37;;;;;;;5.47;1.90;;;;;;;;;;4983936;28;20179;-70
2023/03/24 12:36:12;;;;;;;4.93;1.33;;;;;;;;;;4980100;28;20247;-71
2023/03/24 12:38:40;;;;;;;3.70;1.83;;;;;;;;;;4984530;28;20246;-70
2023/03/24 12:41:15;;;;;;;6.25;1.10;;;;;;;;;;4981608;28;20654;-72
2023/03/24 12:43:40;;;;;;;4.95;1.25;;;;;;;;;;4981020;28;20254;-72
2023/03/24 12:46:26;;;;;;;5.78;1.52;;;;;;;;;;4978212;28;20662;-71
2023/03/24 12:48:51;;;;;;;7.93;1.20;;;;;;;;;;4968769;28;20275;-71
2023/03/24 12:51:41;;;;;;;6.07;1.52;;;;;;;;;;4981713;28;20263;-71
2023/03/24 12:54:28;;;;;;;5.15;1.30;;;;;;;;;;4976053;28;20214;-71
2023/03/24 12:56:55;;;;;;;9.77;2.83;;;;;;;;;;4981459;28;20188;-71
2023/03/24 12:59:28;;;;;;;9.32;1.50;;;;;;;;;;4980516;28;20222;-72
2023/03/24 13:01:57;;;;;;;5.28;1.88;;;;;;;;;;4976977;28;20187;-72
2023/03/24 13:04:31;;;;;;;12.55;1.90;;;;;;;;;;4985200;28;20624;-71
2023/03/24 13:07:10;;;;;;;9.23;1.77;;;;;;;;;;4985222;28;20192;-71
2023/03/24 13:09:39;;;;;;;7.63;1.75;;;;;;;;;;4983463;28;20172;-71
2023/03/24 13:12:23;;;;;;;7.32;1.40;;;;;;;;;;4985730;28;20215;-71
2023/03/24 13:14:54;;;;;;;7.15;1.73;;;;;;;;;;4977888;28;20258;-72
2023/03/24 13:17:29;;;;;;;7.00;2.00;;;;;;;;;;4984064;28;20540;-71
2023/03/24 13:19:54;;;;;;;4.75;1.58;;;;;;;;;;4988656;28;20681;-71
2023/03/24 13:22:20;;;;;;;5.30;1.70;;;;;;;;;;4986282;28;20188;-71
2023/03/24 13:24:46;;;;;;;5.95;1.40;;;;;;;;;;4981740;28;20241;-71
2023/03/24 13:27:35;;;;;;;7.85;1.80;;;;;;;;;;4989992;28;20180;-71
2023/03/24 13:30:06;;;;;;;6.07;2.22;;;;;;;;;;4978847;28;20299;-71
2023/03/24 13:32:37;;;;;;;6.43;1.73;;;;;;;;;;4982250;28;20183;-71
2023/03/24 13:35:03;;;;;;;5.45;1.25;;;;;;;;;;4989552;28;20203;-72
2023/03/24 13:37:31;;;;;;;5.25;1.23;;;;;;;;;;4982949;28;20176;-71
2023/03/24 13:39:58;;;;;;;2.83;0.75;;;;;;;;;;4982256;28;20604;-72
2023/03/24 13:42:29;;;;;;;4.13;1.00;;;;;;;;;;4983351;28;20182;-72
2023/03/24 13:44:54;;;;;;;2.97;0.65;;;;;;;;;;4981039;28;20195;-72
2023/03/24 13:47:19;;;;;;;3.13;0.95;;;;;;;;;;4985796;28;20190;-72
2023/03/24 13:49:52;;;;;;;4.45;1.30;;;;;;;;;;4985501;28;20603;-72
2023/03/24 13:52:25;;;;;;;3.95;1.20;;;;;;;;;;4983412;28;20603;-72
2023/03/24 13:54:52;;;;;;;7.25;1.95;;;;;;;;;;4991291;28;20709;-72
2023/03/24 13:57:19;;;;;;;8.45;1.55;;;;;;;;;;4985055;28;20184;-72
2023/03/24 14:00:23;;;;;;;9.15;1.65;;;;;;;;;;4983586;28;20186;-72
2023/03/24 14:02:51;;;;;;;3.90;1.02;;;;;;;;;;4911800;29;20233;-72
2023/03/24 14:05:25;;;;;;;7.03;1.70;;;;;;;;;;4915144;29;20760;-72
2023/03/24 14:08:11;;;;;;;7.22;2.22;;;;;;;;;;4950010;28;20204;-72
2023/03/24 14:10:38;;;;;;;5.38;1.63;;;;;;;;;;4982842;28;20231;-72
2023/03/24 14:13:12;;;;;;;7.10;1.40;;;;;;;;;;4989280;28;20167;-72
2023/03/24 14:15:44;;;;;;;11.75;2.85;;;;;;;;;;4981899;28;20585;-72
2023/03/24 14:18:12;;;;;;;6.93;1.13;;;;;;;;;;4988019;28;20712;-72
2023/03/24 14:20:40;;;;;;;3.03;0.90;;;;;;;;;;4984043;28;20181;-72
2023/03/24 14:23:16;;;;;;;3.20;1.40;;;;;;;;;;4991554;28;20266;-72
2023/03/24 14:25:51;;;;;;;4.63;1.00;;;;;;;;;;4981441;28;20223;-72
2023/03/24 14:28:19;;;;;;;4.53;0.88;;;;;;;;;;4986439;28;20266;-72
2023/03/24 14:30:57;;;;;;;6.40;1.25;;;;;;;;;;4987540;28;20662;-72
2023/03/24 14:33:24;;;;;;;4.55;1.38;;;;;;;;;;4987576;28;20186;-73
2023/03/24 14:35:56;;;;;;;5.22;1.20;;;;;;;;;;4987826;28;20195;-72
2023/03/24 14:38:23;;;;;;;3.10;0.80;;;;;;;;;;4984462;28;20178;-71
2023/03/24 14:40:51;;;;;;;3.22;0.90;;;;;;;;;;4985967;28;20187;-72
2023/03/24 14:43:48;;;;;;;5.88;1.20;;;;;;;;;;4984231;28;20182;-72
2023/03/24 14:46:19;;;;;;;3.67;1.25;;;;;;;;;;4988855;28;20262;-72
2023/03/24 14:48:51;;;;;;;6.50;1.42;;;;;;;;;;4988092;28;20184;-73